IGO301 VABB-OKKK
Flight info
| Callsign | IGO301 |
|---|---|
| Flight time | 3h 43m |
| Altitude | 34000 |
| Route | VABB/27 N0451F360 RAXE2A SAKUN V2 SUGID N571 MENSA/N0444F340 N571 IVOXI M557 MITIX/N0447F360 M557 TUMAK M600 KUMBO A453 DEBTI DEBT3C OKKK/33R |
| Aircraft | A321/M-SDFGHIRWY/C |
Departure
| Time | 2026-05-06 07:10 |
|---|---|
| Airport | Chhatrapati Shivaji Maharaj International Airport (VABB) |
Arrival
| Time | 2026-05-06 10:54 |
|---|---|
| Airport | Kuwait International Airport (OKKK) |
| Time | Latitude | Longitude | Altitude | Speed | Heading |
|---|---|---|---|---|---|
| 2026-05-06 06:48 | 19.09318 | 72.87079 | 35 ft | 0 kts | 32° |
| 2026-05-06 06:58 | 19.09313 | 72.87075 | 36 ft | 3 kts | 32° |
| 2026-05-06 06:58 | 19.09297 | 72.87065 | 35 ft | 3 kts | 32° |
| 2026-05-06 06:59 | 19.09282 | 72.87054 | 33 ft | 3 kts | 32° |
| 2026-05-06 06:59 | 19.09268 | 72.87040 | 34 ft | 3 kts | 59° |
| 2026-05-06 06:59 | 19.09259 | 72.87023 | 32 ft | 3 kts | 59° |
| 2026-05-06 06:59 | 19.09254 | 72.87010 | 34 ft | 0 kts | 85° |
| 2026-05-06 07:04 | 19.09245 | 72.87060 | 36 ft | 15 kts | 102° |
| 2026-05-06 07:05 | 19.09235 | 72.87214 | 37 ft | 23 kts | 102° |
| 2026-05-06 07:05 | 19.09113 | 72.87268 | 37 ft | 21 kts | 184° |
| 2026-05-06 07:05 | 19.09051 | 72.87291 | 38 ft | 4 kts | 105° |
| 2026-05-06 07:05 | 19.09052 | 72.87380 | 38 ft | 17 kts | 88° |
| 2026-05-06 07:06 | 19.09055 | 72.87508 | 39 ft | 18 kts | 88° |
| 2026-05-06 07:06 | 19.09059 | 72.87640 | 39 ft | 18 kts | 88° |
| 2026-05-06 07:06 | 19.09056 | 72.87793 | 40 ft | 24 kts | 90° |
| 2026-05-06 07:06 | 19.09055 | 72.87966 | 41 ft | 23 kts | 90° |
| 2026-05-06 07:07 | 19.09055 | 72.87991 | 41 ft | 1 kts | 90° |
| 2026-05-06 07:07 | 19.09040 | 72.88053 | 40 ft | 12 kts | 134° |
| 2026-05-06 07:07 | 19.08976 | 72.88056 | 41 ft | 11 kts | 185° |
| 2026-05-06 07:07 | 19.08903 | 72.88032 | 40 ft | 11 kts | 232° |
| 2026-05-06 07:08 | 19.08890 | 72.87950 | 40 ft | 12 kts | 267° |
| 2026-05-06 07:08 | 19.08886 | 72.87862 | 40 ft | 12 kts | 269° |
| 2026-05-06 07:08 | 19.08886 | 72.87821 | 40 ft | 1 kts | 269° |
| 2026-05-06 07:08 | 19.08884 | 72.87599 | 38 ft | 71 kts | 269° |
| 2026-05-06 07:09 | 19.08880 | 72.87318 | 40 ft | 0 kts | 269° |
| 2026-05-06 07:09 | 19.08880 | 72.87317 | 40 ft | 0 kts | 269° |
| 2026-05-06 07:09 | 19.08878 | 72.87188 | 38 ft | 54 kts | 269° |
| 2026-05-06 07:10 | 19.08865 | 72.86464 | 34 ft | 143 kts | 269° |
| 2026-05-06 07:10 | 19.08821 | 72.85190 | 315 ft | 188 kts | 266° |
| 2026-05-06 07:10 | 19.08716 | 72.83757 | 966 ft | 206 kts | 266° |
| 2026-05-06 07:10 | 19.08617 | 72.82154 | 1593 ft | 233 kts | 268° |
| 2026-05-06 07:11 | 19.08565 | 72.80416 | 2038 ft | 226 kts | 272° |
| 2026-05-06 07:11 | 19.08606 | 72.78833 | 2342 ft | 217 kts | 274° |
| 2026-05-06 07:11 | 19.08647 | 72.77190 | 2911 ft | 230 kts | 273° |
| 2026-05-06 07:11 | 19.08667 | 72.75454 | 3480 ft | 241 kts | 275° |
| 2026-05-06 07:12 | 19.08820 | 72.73657 | 4070 ft | 251 kts | 279° |
| 2026-05-06 07:12 | 19.09039 | 72.71773 | 4627 ft | 265 kts | 279° |
| 2026-05-06 07:12 | 19.09266 | 72.69817 | 5196 ft | 278 kts | 279° |
| 2026-05-06 07:12 | 19.09500 | 72.67737 | 5780 ft | 291 kts | 278° |
| 2026-05-06 07:13 | 19.09741 | 72.65555 | 6315 ft | 305 kts | 278° |
| 2026-05-06 07:13 | 19.09988 | 72.63274 | 6808 ft | 319 kts | 277° |
| 2026-05-06 07:13 | 19.10245 | 72.60894 | 7314 ft | 332 kts | 277° |
| 2026-05-06 07:13 | 19.10510 | 72.58429 | 7814 ft | 344 kts | 276° |
| 2026-05-06 07:14 | 19.10784 | 72.55869 | 8331 ft | 355 kts | 276° |
| 2026-05-06 07:14 | 19.11064 | 72.53243 | 8859 ft | 364 kts | 275° |
| 2026-05-06 07:14 | 19.11352 | 72.50544 | 9393 ft | 372 kts | 275° |
| 2026-05-06 07:14 | 19.11641 | 72.47841 | 9902 ft | 377 kts | 275° |
| 2026-05-06 07:15 | 19.11936 | 72.45079 | 10396 ft | 379 kts | 275° |
| 2026-05-06 07:15 | 19.12231 | 72.42306 | 10853 ft | 381 kts | 275° |
| 2026-05-06 07:15 | 19.12529 | 72.39513 | 11185 ft | 382 kts | 275° |
| 2026-05-06 07:15 | 19.12827 | 72.36711 | 11530 ft | 384 kts | 275° |
| 2026-05-06 07:16 | 19.13126 | 72.33894 | 11867 ft | 385 kts | 275° |
| 2026-05-06 07:16 | 19.13425 | 72.31076 | 12217 ft | 386 kts | 275° |
| 2026-05-06 07:16 | 19.13724 | 72.28247 | 12566 ft | 387 kts | 276° |
| 2026-05-06 07:16 | 19.14023 | 72.25415 | 12907 ft | 389 kts | 276° |
| 2026-05-06 07:17 | 19.14325 | 72.22562 | 13263 ft | 392 kts | 276° |
| 2026-05-06 07:17 | 19.14628 | 72.19680 | 13634 ft | 394 kts | 276° |
| 2026-05-06 07:17 | 19.14928 | 72.16831 | 13952 ft | 395 kts | 276° |
| 2026-05-06 07:17 | 19.15232 | 72.13941 | 14271 ft | 396 kts | 277° |
| 2026-05-06 07:18 | 19.15661 | 72.11050 | 14591 ft | 399 kts | 283° |
| 2026-05-06 07:18 | 19.16509 | 72.08260 | 14904 ft | 400 kts | 294° |
| 2026-05-06 07:18 | 19.17729 | 72.05600 | 15237 ft | 402 kts | 298° |
| 2026-05-06 07:18 | 19.19049 | 72.02977 | 15579 ft | 405 kts | 299° |
| 2026-05-06 07:19 | 19.20390 | 72.00345 | 15915 ft | 407 kts | 299° |
| 2026-05-06 07:19 | 19.21731 | 71.97706 | 16241 ft | 409 kts | 299° |
| 2026-05-06 07:20 | 19.25793 | 71.89657 | 17289 ft | 414 kts | 299° |
| 2026-05-06 07:20 | 19.27152 | 71.86955 | 17656 ft | 416 kts | 299° |
| 2026-05-06 07:20 | 19.28512 | 71.84249 | 18018 ft | 417 kts | 299° |
| 2026-05-06 07:20 | 19.29874 | 71.81538 | 18333 ft | 417 kts | 299° |
| 2026-05-06 07:21 | 19.31233 | 71.78831 | 18655 ft | 417 kts | 299° |
| 2026-05-06 07:21 | 19.32592 | 71.76121 | 18970 ft | 416 kts | 299° |
| 2026-05-06 07:21 | 19.33947 | 71.73418 | 19283 ft | 415 kts | 299° |
| 2026-05-06 07:21 | 19.35299 | 71.70721 | 19601 ft | 414 kts | 299° |
| 2026-05-06 07:22 | 19.36645 | 71.68033 | 19922 ft | 413 kts | 299° |
| 2026-05-06 07:22 | 19.37971 | 71.65385 | 20232 ft | 411 kts | 299° |
| 2026-05-06 07:22 | 19.39306 | 71.62716 | 20568 ft | 410 kts | 299° |
| 2026-05-06 07:22 | 19.40638 | 71.60054 | 20900 ft | 409 kts | 299° |
| 2026-05-06 07:23 | 19.41972 | 71.57385 | 21218 ft | 409 kts | 299° |
| 2026-05-06 07:23 | 19.43302 | 71.54724 | 22573 ft | 409 kts | 298° |
| 2026-05-06 07:23 | 19.44629 | 71.52066 | 21911 ft | 408 kts | 299° |
| 2026-05-06 07:23 | 19.45958 | 71.49402 | 22253 ft | 409 kts | 299° |
| 2026-05-06 07:24 | 19.47290 | 71.46734 | 22615 ft | 410 kts | 299° |
| 2026-05-06 07:24 | 19.48626 | 71.44058 | 22975 ft | 411 kts | 299° |
| 2026-05-06 07:24 | 19.49964 | 71.41376 | 23338 ft | 411 kts | 299° |
| 2026-05-06 07:24 | 19.51302 | 71.38692 | 23662 ft | 412 kts | 299° |
| 2026-05-06 07:25 | 19.52639 | 71.36008 | 23964 ft | 412 kts | 299° |
| 2026-05-06 07:25 | 19.53978 | 71.33319 | 24259 ft | 413 kts | 299° |
| 2026-05-06 07:25 | 19.55323 | 71.30618 | 24574 ft | 414 kts | 299° |
| 2026-05-06 07:25 | 19.56651 | 71.27948 | 24884 ft | 416 kts | 298° |
| 2026-05-06 07:26 | 19.58004 | 71.25227 | 25187 ft | 418 kts | 298° |
| 2026-05-06 07:26 | 19.59362 | 71.22496 | 25520 ft | 420 kts | 298° |
| 2026-05-06 07:26 | 19.60644 | 71.19702 | 25841 ft | 423 kts | 294° |
| 2026-05-06 07:26 | 19.61715 | 71.16778 | 26152 ft | 426 kts | 291° |
| 2026-05-06 07:27 | 19.62695 | 71.13807 | 26496 ft | 428 kts | 290° |
| 2026-05-06 07:27 | 19.63630 | 71.10803 | 26828 ft | 430 kts | 289° |
| 2026-05-06 07:27 | 19.64547 | 71.07785 | 27151 ft | 431 kts | 289° |
| 2026-05-06 07:27 | 19.65469 | 71.04746 | 27505 ft | 432 kts | 289° |
| 2026-05-06 07:28 | 19.66397 | 71.01707 | 27850 ft | 433 kts | 289° |
| 2026-05-06 07:28 | 19.67333 | 70.98667 | 28188 ft | 434 kts | 289° |
| 2026-05-06 07:28 | 19.69225 | 70.92571 | 28910 ft | 435 kts | 289° |
| 2026-05-06 07:29 | 19.70163 | 70.89561 | 29250 ft | 435 kts | 289° |
| 2026-05-06 07:29 | 19.71112 | 70.86515 | 29630 ft | 435 kts | 289° |
| 2026-05-06 07:29 | 19.72062 | 70.83466 | 29993 ft | 435 kts | 289° |
| 2026-05-06 07:29 | 19.73013 | 70.80410 | 30293 ft | 435 kts | 289° |
| 2026-05-06 07:30 | 19.73961 | 70.77359 | 30628 ft | 435 kts | 289° |
| 2026-05-06 07:30 | 19.74906 | 70.74315 | 30954 ft | 433 kts | 289° |
| 2026-05-06 07:30 | 19.75531 | 70.72302 | 31166 ft | 432 kts | 289° |
| 2026-05-06 07:30 | 19.76470 | 70.69274 | 31491 ft | 431 kts | 289° |
| 2026-05-06 07:31 | 19.77721 | 70.65238 | 31922 ft | 430 kts | 289° |
| 2026-05-06 07:31 | 19.78341 | 70.63236 | 32156 ft | 429 kts | 289° |
| 2026-05-06 07:31 | 19.79274 | 70.60221 | 32495 ft | 429 kts | 289° |
| 2026-05-06 07:31 | 19.80504 | 70.56243 | 32940 ft | 427 kts | 289° |
| 2026-05-06 07:32 | 19.81130 | 70.54218 | 33178 ft | 426 kts | 289° |
| 2026-05-06 07:32 | 19.82053 | 70.51230 | 33510 ft | 426 kts | 289° |
| 2026-05-06 07:32 | 19.82966 | 70.48271 | 33796 ft | 426 kts | 289° |
| 2026-05-06 07:32 | 19.83894 | 70.45265 | 33881 ft | 431 kts | 289° |
| 2026-05-06 07:33 | 19.85644 | 70.39075 | 33885 ft | 444 kts | 282° |
| 2026-05-06 07:33 | 19.85845 | 70.32503 | 33883 ft | 449 kts | 262° |
| 2026-05-06 07:34 | 19.84240 | 70.26025 | 33884 ft | 457 kts | 254° |
| 2026-05-06 07:34 | 19.83238 | 70.22813 | 35244 ft | 459 kts | 251° |
| 2026-05-06 07:34 | 19.82183 | 70.19582 | 33564 ft | 466 kts | 252° |
| 2026-05-06 07:35 | 19.81113 | 70.16334 | 33720 ft | 463 kts | 252° |
| 2026-05-06 07:35 | 19.80060 | 70.13115 | 33879 ft | 461 kts | 252° |
| 2026-05-06 07:35 | 19.78003 | 70.06723 | 33885 ft | 460 kts | 253° |
| 2026-05-06 07:36 | 19.75956 | 70.00282 | 33885 ft | 460 kts | 253° |
| 2026-05-06 07:36 | 19.73916 | 69.93849 | 33886 ft | 460 kts | 253° |
| 2026-05-06 07:37 | 19.71870 | 69.87413 | 33886 ft | 460 kts | 253° |
| 2026-05-06 07:37 | 19.69822 | 69.80982 | 33885 ft | 460 kts | 253° |
| 2026-05-06 07:38 | 19.67779 | 69.74580 | 33888 ft | 460 kts | 253° |
| 2026-05-06 07:38 | 19.65722 | 69.68143 | 33888 ft | 460 kts | 253° |
| 2026-05-06 07:39 | 19.63667 | 69.61717 | 33887 ft | 460 kts | 253° |
| 2026-05-06 07:39 | 19.61605 | 69.55281 | 33888 ft | 460 kts | 253° |
| 2026-05-06 07:40 | 19.59541 | 69.48849 | 33890 ft | 461 kts | 252° |
| 2026-05-06 07:40 | 19.57473 | 69.42395 | 33887 ft | 461 kts | 254° |
| 2026-05-06 07:41 | 19.56512 | 69.35776 | 33888 ft | 457 kts | 273° |
| 2026-05-06 07:41 | 19.56894 | 69.32436 | 33886 ft | 456 kts | 284° |
| 2026-05-06 07:41 | 19.57887 | 69.29255 | 33889 ft | 454 kts | 294° |
| 2026-05-06 07:42 | 19.60596 | 69.23205 | 33887 ft | 454 kts | 297° |
| 2026-05-06 07:42 | 19.63522 | 69.17274 | 33885 ft | 454 kts | 298° |
| 2026-05-06 07:43 | 19.66452 | 69.11317 | 33885 ft | 455 kts | 297° |
| 2026-05-06 07:43 | 19.69322 | 69.05381 | 33889 ft | 455 kts | 297° |
| 2026-05-06 07:44 | 19.72195 | 68.99382 | 33890 ft | 455 kts | 297° |
| 2026-05-06 07:44 | 19.75059 | 68.93390 | 33886 ft | 455 kts | 297° |
| 2026-05-06 07:45 | 19.77921 | 68.87401 | 33887 ft | 455 kts | 297° |
| 2026-05-06 07:45 | 19.80786 | 68.81404 | 33886 ft | 456 kts | 297° |
| 2026-05-06 07:46 | 19.83636 | 68.75431 | 33890 ft | 454 kts | 297° |
| 2026-05-06 07:46 | 19.86484 | 68.69454 | 33883 ft | 453 kts | 297° |
| 2026-05-06 07:47 | 19.89329 | 68.63480 | 33889 ft | 452 kts | 297° |
| 2026-05-06 07:47 | 19.92168 | 68.57512 | 33884 ft | 452 kts | 297° |
| 2026-05-06 07:48 | 19.95005 | 68.51543 | 33884 ft | 452 kts | 297° |
| 2026-05-06 07:48 | 19.97841 | 68.45568 | 33889 ft | 453 kts | 297° |
| 2026-05-06 07:49 | 20.00678 | 68.39584 | 33885 ft | 453 kts | 297° |
| 2026-05-06 07:49 | 20.03492 | 68.33643 | 33888 ft | 453 kts | 297° |
| 2026-05-06 07:50 | 20.06329 | 68.27646 | 33888 ft | 453 kts | 297° |
| 2026-05-06 07:50 | 20.09155 | 68.21668 | 33884 ft | 451 kts | 297° |
| 2026-05-06 07:51 | 20.11963 | 68.15722 | 33884 ft | 447 kts | 296° |
| 2026-05-06 07:51 | 20.14748 | 68.09817 | 33886 ft | 445 kts | 296° |
| 2026-05-06 07:52 | 20.17521 | 68.03930 | 33888 ft | 445 kts | 296° |
| 2026-05-06 07:52 | 20.20293 | 67.98040 | 33885 ft | 445 kts | 296° |
| 2026-05-06 07:53 | 20.23045 | 67.92185 | 33885 ft | 445 kts | 296° |
| 2026-05-06 07:53 | 20.25816 | 67.86285 | 33884 ft | 445 kts | 296° |
| 2026-05-06 07:54 | 20.28580 | 67.80394 | 33883 ft | 445 kts | 296° |
| 2026-05-06 07:54 | 20.31340 | 67.74504 | 33888 ft | 445 kts | 296° |
| 2026-05-06 07:55 | 20.34083 | 67.68645 | 33887 ft | 443 kts | 295° |
| 2026-05-06 07:55 | 20.36832 | 67.62765 | 33887 ft | 443 kts | 295° |
| 2026-05-06 07:56 | 20.39581 | 67.56880 | 33886 ft | 443 kts | 295° |
| 2026-05-06 07:56 | 20.42332 | 67.50985 | 33882 ft | 444 kts | 295° |
| 2026-05-06 07:57 | 20.45080 | 67.45089 | 33885 ft | 444 kts | 295° |
| 2026-05-06 07:57 | 20.47830 | 67.39184 | 33884 ft | 444 kts | 295° |
| 2026-05-06 07:58 | 20.50575 | 67.33282 | 33885 ft | 444 kts | 295° |
| 2026-05-06 07:58 | 20.53304 | 67.27408 | 33884 ft | 444 kts | 295° |
| 2026-05-06 07:59 | 20.56045 | 67.21502 | 33880 ft | 444 kts | 295° |
| 2026-05-06 07:59 | 20.58784 | 67.15593 | 33886 ft | 444 kts | 295° |
| 2026-05-06 08:00 | 20.61523 | 67.09680 | 33888 ft | 444 kts | 295° |
| 2026-05-06 08:00 | 20.64262 | 67.03758 | 33886 ft | 444 kts | 295° |
| 2026-05-06 08:01 | 20.66995 | 66.97843 | 33889 ft | 444 kts | 295° |
| 2026-05-06 08:01 | 20.69732 | 66.91913 | 33885 ft | 444 kts | 295° |
| 2026-05-06 08:02 | 20.72465 | 66.85986 | 33887 ft | 444 kts | 295° |
| 2026-05-06 08:02 | 20.75176 | 66.80100 | 33885 ft | 444 kts | 295° |
| 2026-05-06 08:03 | 20.77903 | 66.74171 | 33888 ft | 444 kts | 295° |
| 2026-05-06 08:03 | 20.80627 | 66.68244 | 33884 ft | 444 kts | 295° |
| 2026-05-06 08:04 | 20.83345 | 66.62324 | 33885 ft | 443 kts | 295° |
| 2026-05-06 08:04 | 20.86058 | 66.56406 | 33885 ft | 443 kts | 295° |
| 2026-05-06 08:05 | 20.88752 | 66.50524 | 33884 ft | 443 kts | 295° |
| 2026-05-06 08:05 | 20.91460 | 66.44604 | 33879 ft | 443 kts | 295° |
| 2026-05-06 08:06 | 20.94169 | 66.38677 | 33881 ft | 443 kts | 295° |
| 2026-05-06 08:06 | 20.96874 | 66.32750 | 33885 ft | 443 kts | 295° |
| 2026-05-06 08:07 | 20.99584 | 66.26810 | 33881 ft | 443 kts | 295° |
| 2026-05-06 08:07 | 21.02285 | 66.20884 | 33887 ft | 443 kts | 295° |
| 2026-05-06 08:08 | 21.04982 | 66.14957 | 33885 ft | 442 kts | 295° |
| 2026-05-06 08:08 | 21.07674 | 66.09035 | 33883 ft | 442 kts | 295° |
| 2026-05-06 08:09 | 21.10348 | 66.03144 | 33883 ft | 442 kts | 295° |
| 2026-05-06 08:09 | 21.13063 | 65.97224 | 33879 ft | 442 kts | 296° |
| 2026-05-06 08:10 | 21.15836 | 65.91340 | 33881 ft | 442 kts | 296° |
| 2026-05-06 08:10 | 21.18618 | 65.85460 | 33881 ft | 442 kts | 296° |
| 2026-05-06 08:11 | 21.21394 | 65.79574 | 33883 ft | 442 kts | 296° |
| 2026-05-06 08:11 | 21.24142 | 65.73729 | 33877 ft | 442 kts | 296° |
| 2026-05-06 08:12 | 21.26907 | 65.67839 | 33881 ft | 441 kts | 296° |
| 2026-05-06 08:12 | 21.29669 | 65.61949 | 33881 ft | 441 kts | 296° |
| 2026-05-06 08:13 | 21.32427 | 65.56060 | 33881 ft | 441 kts | 296° |
| 2026-05-06 08:13 | 21.35181 | 65.50174 | 33879 ft | 441 kts | 296° |
| 2026-05-06 08:14 | 21.37911 | 65.44333 | 33876 ft | 441 kts | 296° |
| 2026-05-06 08:14 | 21.40661 | 65.38443 | 33874 ft | 441 kts | 296° |
| 2026-05-06 08:15 | 21.43410 | 65.32550 | 33878 ft | 441 kts | 296° |
| 2026-05-06 08:15 | 21.46150 | 65.26667 | 33877 ft | 441 kts | 296° |
| 2026-05-06 08:16 | 21.48896 | 65.20765 | 33881 ft | 441 kts | 296° |
| 2026-05-06 08:16 | 21.51632 | 65.14878 | 33878 ft | 440 kts | 296° |
| 2026-05-06 08:17 | 21.54365 | 65.08990 | 33879 ft | 440 kts | 296° |
| 2026-05-06 08:17 | 21.57085 | 65.03125 | 33877 ft | 440 kts | 296° |
| 2026-05-06 08:18 | 21.59811 | 64.97239 | 33858 ft | 440 kts | 296° |
| 2026-05-06 08:18 | 21.62541 | 64.91340 | 33852 ft | 440 kts | 296° |
| 2026-05-06 08:19 | 21.64805 | 64.86441 | 33854 ft | 440 kts | 296° |
| 2026-05-06 08:19 | 21.67530 | 64.80539 | 33854 ft | 440 kts | 296° |
| 2026-05-06 08:20 | 21.70251 | 64.74638 | 33854 ft | 440 kts | 296° |
| 2026-05-06 08:20 | 21.72949 | 64.68781 | 33848 ft | 439 kts | 296° |
| 2026-05-06 08:21 | 21.75655 | 64.62901 | 33848 ft | 439 kts | 296° |
| 2026-05-06 08:21 | 21.78360 | 64.57015 | 33849 ft | 439 kts | 296° |
| 2026-05-06 08:22 | 21.81070 | 64.51112 | 33847 ft | 439 kts | 296° |
| 2026-05-06 08:22 | 21.83776 | 64.45211 | 33847 ft | 439 kts | 296° |
| 2026-05-06 08:23 | 21.86473 | 64.39322 | 33849 ft | 439 kts | 295° |
| 2026-05-06 08:23 | 21.89170 | 64.33426 | 33847 ft | 439 kts | 295° |
| 2026-05-06 08:24 | 21.91851 | 64.27559 | 33848 ft | 439 kts | 295° |
| 2026-05-06 08:24 | 21.94537 | 64.21675 | 33847 ft | 437 kts | 295° |
| 2026-05-06 08:25 | 21.97214 | 64.15802 | 33849 ft | 437 kts | 295° |
| 2026-05-06 08:25 | 21.99898 | 64.09909 | 33848 ft | 437 kts | 295° |
| 2026-05-06 08:26 | 22.02553 | 64.04071 | 33837 ft | 437 kts | 295° |
| 2026-05-06 08:26 | 22.05226 | 63.98188 | 33843 ft | 437 kts | 295° |
| 2026-05-06 08:27 | 22.07900 | 63.92295 | 33844 ft | 437 kts | 295° |
| 2026-05-06 08:27 | 22.10573 | 63.86397 | 33846 ft | 437 kts | 295° |
| 2026-05-06 08:28 | 22.13244 | 63.80497 | 33845 ft | 437 kts | 295° |
| 2026-05-06 08:28 | 22.15907 | 63.74610 | 33838 ft | 435 kts | 295° |
| 2026-05-06 08:29 | 22.18546 | 63.68765 | 33843 ft | 435 kts | 295° |
| 2026-05-06 08:29 | 22.21195 | 63.62894 | 33843 ft | 435 kts | 295° |
| 2026-05-06 08:30 | 22.23843 | 63.57016 | 33841 ft | 435 kts | 295° |
| 2026-05-06 08:30 | 22.26489 | 63.51137 | 33840 ft | 435 kts | 295° |
| 2026-05-06 08:31 | 22.29131 | 63.45260 | 33841 ft | 435 kts | 295° |
| 2026-05-06 08:31 | 22.31773 | 63.39378 | 33838 ft | 435 kts | 295° |
| 2026-05-06 08:32 | 22.34400 | 63.33521 | 33839 ft | 436 kts | 295° |
| 2026-05-06 08:32 | 22.37036 | 63.27638 | 33839 ft | 434 kts | 295° |
| 2026-05-06 08:33 | 22.39667 | 63.21757 | 33841 ft | 434 kts | 295° |
| 2026-05-06 08:33 | 22.42297 | 63.15874 | 33839 ft | 434 kts | 295° |
| 2026-05-06 08:34 | 22.46066 | 63.07027 | 33837 ft | 434 kts | 292° |
| 2026-05-06 08:35 | 22.48399 | 63.00997 | 33835 ft | 434 kts | 292° |
| 2026-05-06 08:35 | 22.50719 | 62.94964 | 33836 ft | 434 kts | 292° |
| 2026-05-06 08:36 | 22.53054 | 62.88942 | 33832 ft | 434 kts | 292° |
| 2026-05-06 08:36 | 22.55398 | 62.82915 | 33844 ft | 434 kts | 292° |
| 2026-05-06 08:37 | 22.57744 | 62.76885 | 33829 ft | 434 kts | 292° |
| 2026-05-06 08:37 | 22.60072 | 62.70891 | 33832 ft | 434 kts | 292° |
| 2026-05-06 08:38 | 22.62414 | 62.64855 | 33830 ft | 434 kts | 292° |
| 2026-05-06 08:38 | 22.64754 | 62.58816 | 35133 ft | 439 kts | 292° |
| 2026-05-06 08:38 | 22.65944 | 62.55742 | 34890 ft | 446 kts | 292° |
| 2026-05-06 08:39 | 22.67152 | 62.52618 | 34646 ft | 452 kts | 292° |
| 2026-05-06 08:39 | 22.68372 | 62.49462 | 33110 ft | 453 kts | 292° |
| 2026-05-06 08:39 | 22.69575 | 62.46349 | 33324 ft | 442 kts | 292° |
| 2026-05-06 08:39 | 22.70753 | 62.43299 | 33583 ft | 437 kts | 292° |
| 2026-05-06 08:40 | 22.71925 | 62.40264 | 33804 ft | 436 kts | 291° |
| 2026-05-06 08:40 | 22.74253 | 62.34221 | 33834 ft | 434 kts | 291° |
| 2026-05-06 08:41 | 22.76565 | 62.28212 | 33831 ft | 434 kts | 291° |
| 2026-05-06 08:41 | 22.78888 | 62.22169 | 33825 ft | 435 kts | 291° |
| 2026-05-06 08:42 | 22.81213 | 62.16110 | 33827 ft | 435 kts | 291° |
| 2026-05-06 08:42 | 22.83537 | 62.10050 | 33830 ft | 435 kts | 291° |
| 2026-05-06 08:43 | 22.85859 | 62.03984 | 33831 ft | 435 kts | 291° |
| 2026-05-06 08:43 | 22.88166 | 61.97951 | 33829 ft | 435 kts | 291° |
| 2026-05-06 08:44 | 22.90483 | 61.91884 | 33826 ft | 435 kts | 291° |
| 2026-05-06 08:44 | 22.92802 | 61.85800 | 33825 ft | 436 kts | 291° |
| 2026-05-06 08:45 | 22.95122 | 61.79711 | 33826 ft | 435 kts | 291° |
| 2026-05-06 08:45 | 22.97431 | 61.73638 | 33828 ft | 435 kts | 291° |
| 2026-05-06 08:46 | 22.99737 | 61.67567 | 33826 ft | 435 kts | 291° |
| 2026-05-06 08:46 | 23.02043 | 61.61487 | 33824 ft | 435 kts | 291° |
| 2026-05-06 08:47 | 23.04344 | 61.55413 | 33823 ft | 435 kts | 291° |
| 2026-05-06 08:47 | 23.06628 | 61.49375 | 33823 ft | 435 kts | 291° |
| 2026-05-06 08:48 | 23.08923 | 61.43300 | 33823 ft | 435 kts | 291° |
| 2026-05-06 08:48 | 23.11218 | 61.37215 | 33823 ft | 435 kts | 291° |
| 2026-05-06 08:49 | 23.13511 | 61.31130 | 33819 ft | 435 kts | 291° |
| 2026-05-06 08:49 | 23.15800 | 61.25046 | 33820 ft | 434 kts | 291° |
| 2026-05-06 08:50 | 23.18082 | 61.18971 | 33817 ft | 434 kts | 291° |
| 2026-05-06 08:50 | 23.20350 | 61.12926 | 33819 ft | 434 kts | 291° |
| 2026-05-06 08:51 | 23.22630 | 61.06842 | 33821 ft | 434 kts | 291° |
| 2026-05-06 08:51 | 23.24908 | 61.00753 | 33817 ft | 434 kts | 291° |
| 2026-05-06 08:52 | 23.27184 | 60.94661 | 33817 ft | 435 kts | 291° |
| 2026-05-06 08:52 | 23.29460 | 60.88562 | 33815 ft | 435 kts | 291° |
| 2026-05-06 08:53 | 23.31716 | 60.82508 | 33814 ft | 434 kts | 291° |
| 2026-05-06 08:53 | 23.33979 | 60.76426 | 33808 ft | 433 kts | 291° |
| 2026-05-06 08:54 | 23.36235 | 60.70357 | 33810 ft | 432 kts | 291° |
| 2026-05-06 08:54 | 23.38484 | 60.64292 | 33808 ft | 432 kts | 291° |
| 2026-05-06 08:55 | 23.40718 | 60.58212 | 33805 ft | 432 kts | 291° |
| 2026-05-06 08:55 | 23.42941 | 60.52132 | 33815 ft | 432 kts | 291° |
| 2026-05-06 08:56 | 23.45161 | 60.46053 | 33806 ft | 432 kts | 291° |
| 2026-05-06 08:56 | 23.47379 | 60.39974 | 33808 ft | 432 kts | 291° |
| 2026-05-06 08:57 | 23.49582 | 60.33930 | 33807 ft | 431 kts | 291° |
| 2026-05-06 08:57 | 23.51788 | 60.27871 | 33801 ft | 429 kts | 291° |
| 2026-05-06 08:58 | 23.53987 | 60.21821 | 33797 ft | 429 kts | 291° |
| 2026-05-06 08:58 | 23.56183 | 60.15772 | 33791 ft | 429 kts | 291° |
| 2026-05-06 08:59 | 23.58378 | 60.09717 | 33794 ft | 429 kts | 291° |
| 2026-05-06 08:59 | 23.60570 | 60.03661 | 33793 ft | 429 kts | 291° |
| 2026-05-06 09:00 | 23.62747 | 59.97643 | 33799 ft | 429 kts | 291° |
| 2026-05-06 09:00 | 23.64932 | 59.91592 | 33794 ft | 429 kts | 291° |
| 2026-05-06 09:01 | 23.67115 | 59.85539 | 33807 ft | 428 kts | 291° |
| 2026-05-06 09:01 | 23.69291 | 59.79495 | 33793 ft | 428 kts | 290° |
| 2026-05-06 09:02 | 23.71466 | 59.73445 | 33796 ft | 427 kts | 290° |
| 2026-05-06 09:02 | 23.73636 | 59.67395 | 33799 ft | 427 kts | 290° |
| 2026-05-06 09:03 | 23.75788 | 59.61386 | 33800 ft | 427 kts | 290° |
| 2026-05-06 09:03 | 23.77953 | 59.55336 | 33791 ft | 428 kts | 290° |
| 2026-05-06 09:04 | 23.80119 | 59.49273 | 33793 ft | 428 kts | 290° |
| 2026-05-06 09:04 | 23.82287 | 59.43199 | 33792 ft | 428 kts | 290° |
| 2026-05-06 09:05 | 23.84448 | 59.37137 | 33805 ft | 428 kts | 290° |
| 2026-05-06 09:05 | 23.86603 | 59.31082 | 33781 ft | 427 kts | 290° |
| 2026-05-06 09:06 | 23.88742 | 59.25061 | 33792 ft | 427 kts | 290° |
| 2026-05-06 09:06 | 23.90891 | 59.19006 | 33796 ft | 428 kts | 290° |
| 2026-05-06 09:07 | 23.93068 | 59.12960 | 33791 ft | 428 kts | 292° |
| 2026-05-06 09:07 | 23.95528 | 59.07028 | 33794 ft | 428 kts | 294° |
| 2026-05-06 09:08 | 23.98096 | 59.01154 | 33772 ft | 429 kts | 294° |
| 2026-05-06 09:08 | 24.00224 | 58.96261 | 33788 ft | 429 kts | 294° |
| 2026-05-06 09:09 | 24.02761 | 58.90353 | 33797 ft | 428 kts | 293° |
| 2026-05-06 09:09 | 24.05277 | 58.84452 | 33793 ft | 427 kts | 293° |
| 2026-05-06 09:10 | 24.07787 | 58.78552 | 33791 ft | 427 kts | 293° |
| 2026-05-06 09:10 | 24.10280 | 58.72688 | 33794 ft | 427 kts | 293° |
| 2026-05-06 09:11 | 24.12787 | 58.66786 | 33794 ft | 427 kts | 293° |
| 2026-05-06 09:11 | 24.15289 | 58.60891 | 33641 ft | 432 kts | 294° |
| 2026-05-06 09:12 | 24.17834 | 58.54893 | 33783 ft | 430 kts | 293° |
| 2026-05-06 09:12 | 24.20329 | 58.49004 | 33795 ft | 427 kts | 293° |
| 2026-05-06 09:13 | 24.22825 | 58.43104 | 33797 ft | 427 kts | 293° |
| 2026-05-06 09:13 | 24.25322 | 58.37191 | 33793 ft | 427 kts | 293° |
| 2026-05-06 09:14 | 24.27816 | 58.31277 | 33794 ft | 427 kts | 293° |
| 2026-05-06 09:14 | 24.30311 | 58.25356 | 33793 ft | 427 kts | 293° |
| 2026-05-06 09:15 | 24.32798 | 58.19445 | 33791 ft | 427 kts | 293° |
| 2026-05-06 09:15 | 24.35273 | 58.13554 | 33797 ft | 428 kts | 293° |
| 2026-05-06 09:16 | 24.37761 | 58.07626 | 33798 ft | 427 kts | 293° |
| 2026-05-06 09:16 | 24.40250 | 58.01688 | 33798 ft | 427 kts | 293° |
| 2026-05-06 09:17 | 24.42730 | 57.95764 | 33798 ft | 427 kts | 293° |
| 2026-05-06 09:17 | 24.45208 | 57.89834 | 33796 ft | 427 kts | 292° |
| 2026-05-06 09:18 | 24.47687 | 57.83895 | 33797 ft | 428 kts | 292° |
| 2026-05-06 09:18 | 24.50142 | 57.77980 | 33798 ft | 428 kts | 292° |
| 2026-05-06 09:19 | 24.52476 | 57.71967 | 33798 ft | 428 kts | 291° |
| 2026-05-06 09:19 | 24.54747 | 57.65925 | 33800 ft | 427 kts | 291° |
| 2026-05-06 09:20 | 24.57020 | 57.59882 | 33799 ft | 428 kts | 291° |
| 2026-05-06 09:20 | 24.59304 | 57.53835 | 33801 ft | 428 kts | 291° |
| 2026-05-06 09:21 | 24.61575 | 57.47832 | 33801 ft | 428 kts | 291° |
| 2026-05-06 09:21 | 24.63860 | 57.41785 | 33804 ft | 428 kts | 291° |
| 2026-05-06 09:22 | 24.66144 | 57.35731 | 33799 ft | 429 kts | 291° |
| 2026-05-06 09:22 | 24.68430 | 57.29663 | 33801 ft | 429 kts | 290° |
| 2026-05-06 09:23 | 24.70704 | 57.23616 | 33804 ft | 428 kts | 290° |
| 2026-05-06 09:23 | 24.72963 | 57.17601 | 33804 ft | 428 kts | 290° |
| 2026-05-06 09:24 | 24.75231 | 57.11553 | 33806 ft | 427 kts | 290° |
| 2026-05-06 09:24 | 24.77497 | 57.05501 | 33808 ft | 428 kts | 290° |
| 2026-05-06 09:25 | 24.79765 | 56.99436 | 33806 ft | 428 kts | 290° |
| 2026-05-06 09:25 | 24.82033 | 56.93360 | 35132 ft | 433 kts | 292° |
| 2026-05-06 09:25 | 24.83191 | 56.90255 | 33598 ft | 439 kts | 290° |
| 2026-05-06 09:26 | 24.84341 | 56.87172 | 33796 ft | 433 kts | 290° |
| 2026-05-06 09:26 | 24.86600 | 56.81114 | 33817 ft | 428 kts | 290° |
| 2026-05-06 09:27 | 24.88853 | 56.75056 | 33814 ft | 427 kts | 290° |
| 2026-05-06 09:27 | 24.91102 | 56.68999 | 33818 ft | 427 kts | 290° |
| 2026-05-06 09:28 | 24.93350 | 56.62933 | 33821 ft | 427 kts | 290° |
| 2026-05-06 09:28 | 24.95596 | 56.56867 | 33802 ft | 427 kts | 290° |
| 2026-05-06 09:29 | 24.97689 | 56.50731 | 33813 ft | 427 kts | 287° |
| 2026-05-06 09:29 | 24.99556 | 56.44515 | 33810 ft | 427 kts | 286° |
| 2026-05-06 09:30 | 25.01382 | 56.38337 | 33811 ft | 426 kts | 286° |
| 2026-05-06 09:30 | 25.03239 | 56.32137 | 33803 ft | 425 kts | 287° |
| 2026-05-06 09:31 | 25.05109 | 56.25935 | 33804 ft | 427 kts | 287° |
| 2026-05-06 09:31 | 25.06979 | 56.19727 | 33836 ft | 426 kts | 286° |
| 2026-05-06 09:32 | 25.08848 | 56.13512 | 33842 ft | 426 kts | 287° |
| 2026-05-06 09:32 | 25.10203 | 56.07216 | 33838 ft | 424 kts | 278° |
| 2026-05-06 09:33 | 25.11078 | 56.00766 | 33838 ft | 424 kts | 277° |
| 2026-05-06 09:33 | 25.11858 | 55.94300 | 33827 ft | 424 kts | 276° |
| 2026-05-06 09:34 | 25.12629 | 55.87849 | 33822 ft | 424 kts | 277° |
| 2026-05-06 09:34 | 25.13404 | 55.81442 | 33820 ft | 423 kts | 277° |
| 2026-05-06 09:35 | 25.14362 | 55.75040 | 33818 ft | 423 kts | 280° |
| 2026-05-06 09:35 | 25.15620 | 55.68686 | 33801 ft | 423 kts | 281° |
| 2026-05-06 09:36 | 25.16928 | 55.62349 | 33785 ft | 423 kts | 281° |
| 2026-05-06 09:36 | 25.18240 | 55.56012 | 33771 ft | 423 kts | 281° |
| 2026-05-06 09:37 | 25.19536 | 55.49708 | 33755 ft | 423 kts | 281° |
| 2026-05-06 09:37 | 25.20841 | 55.43364 | 33746 ft | 424 kts | 283° |
| 2026-05-06 09:38 | 25.22522 | 55.37113 | 33746 ft | 425 kts | 285° |
| 2026-05-06 09:38 | 25.24306 | 55.30895 | 33799 ft | 425 kts | 285° |
| 2026-05-06 09:39 | 25.26111 | 55.24680 | 33795 ft | 424 kts | 285° |
| 2026-05-06 09:39 | 25.27906 | 55.18476 | 33793 ft | 424 kts | 285° |
| 2026-05-06 09:40 | 25.29678 | 55.12301 | 33802 ft | 424 kts | 285° |
| 2026-05-06 09:40 | 25.32211 | 55.02935 | 33808 ft | 424 kts | 284° |
| 2026-05-06 09:41 | 25.33872 | 54.96673 | 33803 ft | 424 kts | 284° |
| 2026-05-06 09:41 | 25.35539 | 54.90405 | 33809 ft | 424 kts | 284° |
| 2026-05-06 09:42 | 25.37195 | 54.84186 | 33824 ft | 424 kts | 284° |
| 2026-05-06 09:42 | 25.38856 | 54.77944 | 33802 ft | 423 kts | 284° |
| 2026-05-06 09:43 | 25.40515 | 54.71700 | 33823 ft | 423 kts | 284° |
| 2026-05-06 09:43 | 25.42170 | 54.65452 | 33824 ft | 423 kts | 284° |
| 2026-05-06 09:44 | 25.43869 | 54.59213 | 33815 ft | 423 kts | 285° |
| 2026-05-06 09:44 | 25.45684 | 54.53054 | 33819 ft | 424 kts | 285° |
| 2026-05-06 09:45 | 25.47537 | 54.46868 | 33821 ft | 424 kts | 285° |
| 2026-05-06 09:45 | 25.49382 | 54.40661 | 33820 ft | 425 kts | 285° |
| 2026-05-06 09:46 | 25.51214 | 54.34451 | 33828 ft | 424 kts | 285° |
| 2026-05-06 09:46 | 25.53037 | 54.28250 | 33821 ft | 423 kts | 285° |
| 2026-05-06 09:47 | 25.54858 | 54.22044 | 33831 ft | 424 kts | 285° |
| 2026-05-06 09:47 | 25.56680 | 54.15833 | 33824 ft | 424 kts | 285° |
| 2026-05-06 09:48 | 25.58503 | 54.09611 | 33832 ft | 424 kts | 285° |
| 2026-05-06 09:48 | 25.60309 | 54.03384 | 33824 ft | 424 kts | 284° |
| 2026-05-06 09:49 | 25.62086 | 53.97152 | 33839 ft | 424 kts | 284° |
| 2026-05-06 09:49 | 25.63850 | 53.90947 | 33829 ft | 423 kts | 284° |
| 2026-05-06 09:50 | 25.65615 | 53.84732 | 33844 ft | 422 kts | 284° |
| 2026-05-06 09:50 | 25.67373 | 53.78536 | 33838 ft | 422 kts | 284° |
| 2026-05-06 09:51 | 25.69134 | 53.72318 | 33850 ft | 421 kts | 284° |
| 2026-05-06 09:51 | 25.70875 | 53.66141 | 33835 ft | 419 kts | 284° |
| 2026-05-06 09:52 | 25.72597 | 53.60009 | 33834 ft | 419 kts | 284° |
| 2026-05-06 09:52 | 25.74325 | 53.53843 | 33835 ft | 419 kts | 284° |
| 2026-05-06 09:53 | 25.76052 | 53.47687 | 33836 ft | 418 kts | 284° |
| 2026-05-06 09:53 | 25.77781 | 53.41531 | 33835 ft | 417 kts | 284° |
| 2026-05-06 09:54 | 25.79504 | 53.35387 | 33834 ft | 417 kts | 284° |
| 2026-05-06 09:54 | 25.81212 | 53.29279 | 33837 ft | 417 kts | 284° |
| 2026-05-06 09:55 | 25.82930 | 53.23124 | 33834 ft | 417 kts | 284° |
| 2026-05-06 09:55 | 25.84495 | 53.18046 | 33834 ft | 420 kts | 288° |
| 2026-05-06 09:56 | 25.86816 | 53.12084 | 33837 ft | 421 kts | 290° |
| 2026-05-06 09:56 | 25.89624 | 53.05187 | 33838 ft | 421 kts | 290° |
| 2026-05-06 09:57 | 25.92048 | 52.99262 | 33837 ft | 421 kts | 290° |
| 2026-05-06 09:57 | 25.94464 | 52.93328 | 33839 ft | 421 kts | 290° |
| 2026-05-06 09:58 | 25.96465 | 52.88392 | 33839 ft | 421 kts | 290° |
| 2026-05-06 09:58 | 25.98871 | 52.82446 | 33839 ft | 421 kts | 290° |
| 2026-05-06 09:59 | 26.01273 | 52.76502 | 33837 ft | 421 kts | 290° |
| 2026-05-06 09:59 | 26.03794 | 52.70607 | 33839 ft | 421 kts | 291° |
| 2026-05-06 10:00 | 26.06428 | 52.64801 | 33837 ft | 420 kts | 292° |
| 2026-05-06 10:00 | 26.09050 | 52.59039 | 33838 ft | 420 kts | 292° |
| 2026-05-06 10:01 | 26.11666 | 52.53246 | 33837 ft | 420 kts | 292° |
| 2026-05-06 10:01 | 26.14289 | 52.47427 | 33837 ft | 421 kts | 292° |
| 2026-05-06 10:02 | 26.16919 | 52.41590 | 33850 ft | 421 kts | 291° |
| 2026-05-06 10:02 | 26.19540 | 52.35770 | 33831 ft | 420 kts | 291° |
| 2026-05-06 10:03 | 26.22147 | 52.29952 | 33831 ft | 419 kts | 291° |
| 2026-05-06 10:03 | 26.24694 | 52.24113 | 33832 ft | 419 kts | 291° |
| 2026-05-06 10:04 | 26.27207 | 52.18283 | 33834 ft | 420 kts | 290° |
| 2026-05-06 10:04 | 26.29737 | 52.12413 | 33831 ft | 420 kts | 291° |
| 2026-05-06 10:05 | 26.32265 | 52.06555 | 33833 ft | 419 kts | 290° |
| 2026-05-06 10:05 | 26.34795 | 52.00704 | 33834 ft | 418 kts | 290° |
| 2026-05-06 10:06 | 26.37279 | 51.94849 | 33832 ft | 415 kts | 287° |
| 2026-05-06 10:06 | 26.39376 | 51.88900 | 33835 ft | 414 kts | 286° |
| 2026-05-06 10:07 | 26.41408 | 51.82876 | 33833 ft | 414 kts | 285° |
| 2026-05-06 10:07 | 26.43414 | 51.76862 | 33833 ft | 413 kts | 285° |
| 2026-05-06 10:08 | 26.45418 | 51.70862 | 33842 ft | 411 kts | 285° |
| 2026-05-06 10:08 | 26.47414 | 51.64890 | 33832 ft | 410 kts | 285° |
| 2026-05-06 10:09 | 26.49403 | 51.58927 | 33834 ft | 410 kts | 285° |
| 2026-05-06 10:09 | 26.51379 | 51.52984 | 33834 ft | 411 kts | 285° |
| 2026-05-06 10:10 | 26.53366 | 51.47000 | 33835 ft | 411 kts | 285° |
| 2026-05-06 10:10 | 26.55354 | 51.41007 | 33827 ft | 411 kts | 285° |
| 2026-05-06 10:11 | 26.57339 | 51.35018 | 33832 ft | 410 kts | 285° |
| 2026-05-06 10:11 | 26.59314 | 51.29049 | 33779 ft | 410 kts | 285° |
| 2026-05-06 10:12 | 26.61292 | 51.23074 | 33780 ft | 410 kts | 285° |
| 2026-05-06 10:12 | 26.63259 | 51.17130 | 33777 ft | 410 kts | 285° |
| 2026-05-06 10:13 | 26.65239 | 51.11139 | 33776 ft | 410 kts | 285° |
| 2026-05-06 10:13 | 26.67215 | 51.05149 | 33781 ft | 410 kts | 285° |
| 2026-05-06 10:14 | 26.69178 | 50.99160 | 33783 ft | 409 kts | 284° |
| 2026-05-06 10:14 | 26.71096 | 50.93187 | 33779 ft | 407 kts | 284° |
| 2026-05-06 10:15 | 26.73000 | 50.87216 | 33770 ft | 407 kts | 284° |
| 2026-05-06 10:15 | 26.74902 | 50.81246 | 33779 ft | 407 kts | 284° |
| 2026-05-06 10:16 | 26.76793 | 50.75312 | 33780 ft | 408 kts | 284° |
| 2026-05-06 10:16 | 26.78697 | 50.69333 | 33771 ft | 408 kts | 284° |
| 2026-05-06 10:17 | 26.80621 | 50.63360 | 33791 ft | 408 kts | 285° |
| 2026-05-06 10:17 | 26.82625 | 50.57436 | 33780 ft | 406 kts | 285° |
| 2026-05-06 10:18 | 26.84643 | 50.51529 | 33780 ft | 406 kts | 285° |
| 2026-05-06 10:18 | 26.86667 | 50.45627 | 33774 ft | 407 kts | 287° |
| 2026-05-06 10:19 | 26.89349 | 50.40028 | 33771 ft | 413 kts | 294° |
| 2026-05-06 10:19 | 26.92341 | 50.34503 | 33770 ft | 415 kts | 295° |
| 2026-05-06 10:20 | 26.95388 | 50.29007 | 33776 ft | 414 kts | 295° |
| 2026-05-06 10:20 | 26.98416 | 50.23528 | 33775 ft | 413 kts | 295° |
| 2026-05-06 10:21 | 27.01428 | 50.18043 | 33767 ft | 413 kts | 294° |
| 2026-05-06 10:21 | 27.04505 | 50.12576 | 33771 ft | 418 kts | 299° |
| 2026-05-06 10:22 | 27.08176 | 50.07457 | 33789 ft | 422 kts | 302° |
| 2026-05-06 10:22 | 27.11951 | 50.02480 | 33773 ft | 421 kts | 303° |
| 2026-05-06 10:23 | 27.15771 | 49.97493 | 33775 ft | 421 kts | 303° |
| 2026-05-06 10:23 | 27.19583 | 49.92495 | 33769 ft | 421 kts | 302° |
| 2026-05-06 10:24 | 27.23385 | 49.87488 | 33769 ft | 421 kts | 302° |
| 2026-05-06 10:24 | 27.27184 | 49.82473 | 33771 ft | 421 kts | 302° |
| 2026-05-06 10:25 | 27.30958 | 49.77485 | 33765 ft | 421 kts | 302° |
| 2026-05-06 10:25 | 27.34753 | 49.72465 | 33769 ft | 421 kts | 302° |
| 2026-05-06 10:26 | 27.38544 | 49.67444 | 33572 ft | 420 kts | 302° |
| 2026-05-06 10:26 | 27.40455 | 49.64929 | 32167 ft | 429 kts | 302° |
| 2026-05-06 10:26 | 27.42342 | 49.62426 | 32722 ft | 416 kts | 301° |
| 2026-05-06 10:27 | 27.44208 | 49.59948 | 33048 ft | 417 kts | 302° |
| 2026-05-06 10:27 | 27.46091 | 49.57435 | 32893 ft | 421 kts | 302° |
| 2026-05-06 10:27 | 27.48080 | 49.54982 | 32481 ft | 429 kts | 309° |
| 2026-05-06 10:27 | 27.50341 | 49.52756 | 32103 ft | 433 kts | 311° |
| 2026-05-06 10:28 | 27.52674 | 49.50575 | 31693 ft | 436 kts | 313° |
| 2026-05-06 10:28 | 27.55052 | 49.48423 | 31320 ft | 439 kts | 313° |
| 2026-05-06 10:28 | 27.57450 | 49.46285 | 30961 ft | 441 kts | 314° |
| 2026-05-06 10:28 | 27.59862 | 49.44146 | 30592 ft | 442 kts | 314° |
| 2026-05-06 10:29 | 27.62283 | 49.41996 | 30217 ft | 443 kts | 314° |
| 2026-05-06 10:29 | 27.64702 | 49.39841 | 29849 ft | 444 kts | 314° |
| 2026-05-06 10:29 | 27.67120 | 49.37681 | 29419 ft | 443 kts | 314° |
| 2026-05-06 10:29 | 27.69526 | 49.35525 | 28988 ft | 441 kts | 314° |
| 2026-05-06 10:30 | 27.71921 | 49.33376 | 28562 ft | 439 kts | 315° |
| 2026-05-06 10:30 | 27.74306 | 49.31232 | 28160 ft | 437 kts | 315° |
| 2026-05-06 10:30 | 27.76653 | 49.29121 | 27765 ft | 435 kts | 315° |
| 2026-05-06 10:30 | 27.79016 | 49.26993 | 27354 ft | 433 kts | 315° |
| 2026-05-06 10:31 | 27.81366 | 49.24874 | 26949 ft | 431 kts | 315° |
| 2026-05-06 10:31 | 27.83710 | 49.22761 | 26552 ft | 430 kts | 315° |
| 2026-05-06 10:31 | 27.86049 | 49.20651 | 26166 ft | 428 kts | 315° |
| 2026-05-06 10:31 | 27.88536 | 49.18758 | 25783 ft | 432 kts | 321° |
| 2026-05-06 10:32 | 27.91083 | 49.16967 | 25413 ft | 431 kts | 322° |
| 2026-05-06 10:32 | 27.93654 | 49.15239 | 25049 ft | 430 kts | 323° |
| 2026-05-06 10:32 | 27.96237 | 49.13547 | 24670 ft | 428 kts | 324° |
| 2026-05-06 10:32 | 27.98817 | 49.11872 | 24305 ft | 427 kts | 324° |
| 2026-05-06 10:33 | 28.01390 | 49.10203 | 23941 ft | 425 kts | 324° |
| 2026-05-06 10:33 | 28.03918 | 49.08559 | 23593 ft | 424 kts | 324° |
| 2026-05-06 10:33 | 28.06495 | 49.06876 | 23220 ft | 422 kts | 324° |
| 2026-05-06 10:33 | 28.09001 | 49.05234 | 22801 ft | 420 kts | 324° |
| 2026-05-06 10:34 | 28.11521 | 49.03580 | 22393 ft | 416 kts | 324° |
| 2026-05-06 10:34 | 28.14019 | 49.01937 | 22984 ft | 413 kts | 324° |
| 2026-05-06 10:34 | 28.16528 | 49.00273 | 22587 ft | 425 kts | 329° |
| 2026-05-06 10:34 | 28.19090 | 48.98582 | 21180 ft | 421 kts | 324° |
| 2026-05-06 10:35 | 28.21583 | 48.96945 | 20782 ft | 408 kts | 324° |
| 2026-05-06 10:35 | 28.24016 | 48.95348 | 20392 ft | 401 kts | 324° |
| 2026-05-06 10:35 | 28.26419 | 48.93766 | 20007 ft | 397 kts | 324° |
| 2026-05-06 10:35 | 28.28796 | 48.92196 | 19638 ft | 394 kts | 324° |
| 2026-05-06 10:36 | 28.31157 | 48.90634 | 19262 ft | 391 kts | 324° |
| 2026-05-06 10:36 | 28.33496 | 48.89084 | 18891 ft | 388 kts | 324° |
| 2026-05-06 10:36 | 28.35793 | 48.87561 | 18526 ft | 386 kts | 324° |
| 2026-05-06 10:36 | 28.38105 | 48.86028 | 18167 ft | 383 kts | 324° |
| 2026-05-06 10:37 | 28.40397 | 48.84508 | 17769 ft | 381 kts | 324° |
| 2026-05-06 10:37 | 28.42682 | 48.82993 | 17353 ft | 378 kts | 324° |
| 2026-05-06 10:37 | 28.44951 | 48.81487 | 16949 ft | 377 kts | 324° |
| 2026-05-06 10:37 | 28.47205 | 48.79992 | 16551 ft | 370 kts | 324° |
| 2026-05-06 10:38 | 28.49391 | 48.78546 | 16144 ft | 357 kts | 324° |
| 2026-05-06 10:38 | 28.51505 | 48.77149 | 15752 ft | 346 kts | 324° |
| 2026-05-06 10:38 | 28.53553 | 48.75792 | 15360 ft | 336 kts | 324° |
| 2026-05-06 10:38 | 28.55546 | 48.74468 | 14972 ft | 327 kts | 324° |
| 2026-05-06 10:39 | 28.57309 | 48.72949 | 14592 ft | 311 kts | 309° |
| 2026-05-06 10:39 | 28.58730 | 48.71141 | 14216 ft | 303 kts | 304° |
| 2026-05-06 10:39 | 28.60043 | 48.69269 | 13850 ft | 302 kts | 303° |
| 2026-05-06 10:39 | 28.61325 | 48.67380 | 13469 ft | 301 kts | 302° |
| 2026-05-06 10:40 | 28.62581 | 48.65507 | 13083 ft | 301 kts | 302° |
| 2026-05-06 10:40 | 28.63845 | 48.63614 | 12681 ft | 300 kts | 302° |
| 2026-05-06 10:40 | 28.65103 | 48.61726 | 12291 ft | 299 kts | 302° |
| 2026-05-06 10:40 | 28.66359 | 48.59837 | 11894 ft | 298 kts | 302° |
| 2026-05-06 10:41 | 28.67612 | 48.57952 | 11509 ft | 298 kts | 302° |
| 2026-05-06 10:41 | 28.68863 | 48.56068 | 11128 ft | 297 kts | 302° |
| 2026-05-06 10:41 | 28.70094 | 48.54214 | 10751 ft | 297 kts | 302° |
| 2026-05-06 10:41 | 28.71340 | 48.52336 | 10382 ft | 297 kts | 302° |
| 2026-05-06 10:42 | 28.72582 | 48.50463 | 10009 ft | 296 kts | 302° |
| 2026-05-06 10:42 | 28.73807 | 48.48582 | 9801 ft | 295 kts | 301° |
| 2026-05-06 10:42 | 28.75010 | 48.46682 | 9767 ft | 296 kts | 301° |
| 2026-05-06 10:42 | 28.76210 | 48.44775 | 9702 ft | 295 kts | 301° |
| 2026-05-06 10:43 | 28.77405 | 48.42874 | 9391 ft | 295 kts | 301° |
| 2026-05-06 10:43 | 28.78604 | 48.40963 | 9073 ft | 296 kts | 301° |
| 2026-05-06 10:43 | 28.79800 | 48.39058 | 8751 ft | 295 kts | 301° |
| 2026-05-06 10:44 | 28.82175 | 48.35275 | 8131 ft | 294 kts | 301° |
| 2026-05-06 10:44 | 28.83364 | 48.33379 | 7824 ft | 294 kts | 301° |
| 2026-05-06 10:44 | 28.84553 | 48.31483 | 7511 ft | 292 kts | 301° |
| 2026-05-06 10:44 | 28.85716 | 48.29630 | 7197 ft | 283 kts | 301° |
| 2026-05-06 10:45 | 28.86847 | 48.27827 | 6900 ft | 275 kts | 301° |
| 2026-05-06 10:45 | 28.87947 | 48.26070 | 6584 ft | 269 kts | 301° |
| 2026-05-06 10:45 | 28.89021 | 48.24352 | 6314 ft | 262 kts | 301° |
| 2026-05-06 10:45 | 28.90064 | 48.22685 | 6024 ft | 254 kts | 301° |
| 2026-05-06 10:46 | 28.91076 | 48.21068 | 5701 ft | 248 kts | 301° |
| 2026-05-06 10:46 | 28.91734 | 48.20014 | 5489 ft | 245 kts | 300° |
| 2026-05-06 10:46 | 28.92721 | 48.18431 | 5181 ft | 244 kts | 301° |
| 2026-05-06 10:46 | 28.94027 | 48.16337 | 4770 ft | 238 kts | 301° |
| 2026-05-06 10:47 | 28.94657 | 48.15331 | 4576 ft | 233 kts | 301° |
| 2026-05-06 10:47 | 28.95894 | 48.13349 | 4153 ft | 229 kts | 301° |
| 2026-05-06 10:47 | 28.96529 | 48.12367 | 3969 ft | 226 kts | 306° |
| 2026-05-06 10:47 | 28.97685 | 48.11215 | 3818 ft | 217 kts | 324° |
| 2026-05-06 10:48 | 28.98979 | 48.10344 | 3840 ft | 216 kts | 329° |
| 2026-05-06 10:48 | 29.00288 | 48.09497 | 3836 ft | 215 kts | 325° |
| 2026-05-06 10:48 | 29.01509 | 48.08509 | 3838 ft | 215 kts | 319° |
| 2026-05-06 10:48 | 29.02741 | 48.07565 | 3835 ft | 206 kts | 330° |
| 2026-05-06 10:49 | 29.03969 | 48.06889 | 3792 ft | 189 kts | 333° |
| 2026-05-06 10:49 | 29.05136 | 48.06245 | 3631 ft | 184 kts | 332° |
| 2026-05-06 10:49 | 29.06280 | 48.05624 | 3386 ft | 184 kts | 333° |
| 2026-05-06 10:49 | 29.07433 | 48.05007 | 3129 ft | 182 kts | 334° |
| 2026-05-06 10:50 | 29.08582 | 48.04394 | 2898 ft | 182 kts | 334° |
| 2026-05-06 10:50 | 29.09730 | 48.03782 | 2673 ft | 183 kts | 334° |
| 2026-05-06 10:50 | 29.10879 | 48.03171 | 2441 ft | 180 kts | 335° |
| 2026-05-06 10:50 | 29.11985 | 48.02582 | 2234 ft | 172 kts | 335° |
| 2026-05-06 10:51 | 29.13054 | 48.02014 | 2049 ft | 166 kts | 335° |
| 2026-05-06 10:51 | 29.14096 | 48.01458 | 1842 ft | 165 kts | 335° |
| 2026-05-06 10:51 | 29.15139 | 48.00903 | 1624 ft | 165 kts | 338° |
| 2026-05-06 10:51 | 29.16166 | 48.00356 | 1424 ft | 161 kts | 339° |
| 2026-05-06 10:52 | 29.17188 | 47.99813 | 1213 ft | 162 kts | 336° |
| 2026-05-06 10:52 | 29.18207 | 47.99267 | 982 ft | 162 kts | 339° |
| 2026-05-06 10:52 | 29.19215 | 47.98724 | 757 ft | 157 kts | 340° |
| 2026-05-06 10:52 | 29.20173 | 47.98201 | 455 ft | 144 kts | 334° |
| 2026-05-06 10:53 | 29.21044 | 47.97747 | 275 ft | 133 kts | 339° |
| 2026-05-06 10:53 | 29.21857 | 47.97320 | 176 ft | 123 kts | 341° |
| 2026-05-06 10:53 | 29.22553 | 47.96949 | 163 ft | 97 kts | 335° |
| 2026-05-06 10:53 | 29.23098 | 47.96662 | 159 ft | 76 kts | 336° |
| 2026-05-06 10:54 | 29.23511 | 47.96441 | 154 ft | 60 kts | 335° |
| 2026-05-06 10:54 | 29.23838 | 47.96269 | 147 ft | 42 kts | 334° |
| 2026-05-06 10:54 | 29.24019 | 47.96187 | 145 ft | 12 kts | 7° |
| 2026-05-06 10:54 | 29.24064 | 47.96252 | 145 ft | 12 kts | 66° |
| 2026-05-06 10:55 | 29.24096 | 47.96345 | 145 ft | 13 kts | 77° |
| 2026-05-06 10:55 | 29.24063 | 47.96394 | 146 ft | 8 kts | 150° |
| 2026-05-06 10:55 | 29.24007 | 47.96424 | 147 ft | 9 kts | 157° |
| 2026-05-06 10:55 | 29.23944 | 47.96458 | 148 ft | 11 kts | 154° |
| 2026-05-06 10:56 | 29.23870 | 47.96497 | 149 ft | 0 kts | 155° |
| 2026-05-06 10:56 | 29.23868 | 47.96499 | 149 ft | 0 kts | 155° |
| 2026-05-06 10:57 | 29.23818 | 47.96525 | 149 ft | 27 kts | 155° |
| 2026-05-06 10:57 | 29.23682 | 47.96608 | 151 ft | 14 kts | 122° |
| 2026-05-06 10:57 | 29.23676 | 47.96720 | 152 ft | 14 kts | 75° |
| 2026-05-06 10:57 | 29.23715 | 47.96826 | 153 ft | 15 kts | 61° |
| 2026-05-06 10:58 | 29.23763 | 47.96928 | 155 ft | 7 kts | 57° |
| 2026-05-06 10:58 | 29.23794 | 47.96940 | 155 ft | 5 kts | 333° |
| 2026-05-06 10:58 | 29.23835 | 47.96917 | 154 ft | 8 kts | 332° |
| 2026-05-06 10:58 | 29.23841 | 47.96913 | 154 ft | 1 kts | 332° |